sensor_id;sensor_type;location;lat;lon;timestamp;P1;durP1;ratioP1;P2;durP2;ratioP2
8100;SDS011;4093;53.470;9.832;2022-09-23T00:01:44;1.73;;;1.63;;
8100;SDS011;4093;53.470;9.832;2022-09-23T00:04:11;2.27;;;1.50;;
8100;SDS011;4093;53.470;9.832;2022-09-23T00:06:38;1.60;;;1.47;;
8100;SDS011;4093;53.470;9.832;2022-09-23T00:09:06;3.17;;;1.70;;
8100;SDS011;4093;53.470;9.832;2022-09-23T00:11:32;2.17;;;1.77;;
8100;SDS011;4093;53.470;9.832;2022-09-23T00:13:59;2.60;;;2.00;;
8100;SDS011;4093;53.470;9.832;2022-09-23T00:16:27;1.60;;;1.43;;
8100;SDS011;4093;53.470;9.832;2022-09-23T00:18:55;2.17;;;1.93;;
8100;SDS011;4093;53.470;9.832;2022-09-23T00:21:22;1.47;;;1.37;;
8100;SDS011;4093;53.470;9.832;2022-09-23T00:23:49;1.83;;;1.53;;
8100;SDS011;4093;53.470;9.832;2022-09-23T00:26:18;2.63;;;1.63;;
8100;SDS011;4093;53.470;9.832;2022-09-23T00:28:46;2.67;;;1.93;;
8100;SDS011;4093;53.470;9.832;2022-09-23T00:31:14;3.77;;;1.90;;
8100;SDS011;4093;53.470;9.832;2022-09-23T00:33:41;2.53;;;1.83;;
8100;SDS011;4093;53.470;9.832;2022-09-23T00:36:09;3.53;;;1.70;;
8100;SDS011;4093;53.470;9.832;2022-09-23T00:38:39;2.40;;;1.90;;
8100;SDS011;4093;53.470;9.832;2022-09-23T00:41:05;3.70;;;1.87;;
8100;SDS011;4093;53.470;9.832;2022-09-23T00:43:37;1.80;;;1.70;;
8100;SDS011;4093;53.470;9.832;2022-09-23T00:46:05;3.93;;;1.70;;
8100;SDS011;4093;53.470;9.832;2022-09-23T00:48:34;1.63;;;1.53;;
8100;SDS011;4093;53.470;9.832;2022-09-23T00:51:04;1.93;;;1.70;;
8100;SDS011;4093;53.470;9.832;2022-09-23T00:53:34;2.90;;;1.67;;
8100;SDS011;4093;53.470;9.832;2022-09-23T00:56:02;3.07;;;1.87;;
8100;SDS011;4093;53.470;9.832;2022-09-23T00:58:32;1.90;;;1.80;;
8100;SDS011;4093;53.470;9.832;2022-09-23T01:01:02;2.37;;;2.03;;
8100;SDS011;4093;53.470;9.832;2022-09-23T01:03:29;2.57;;;2.17;;
8100;SDS011;4093;53.470;9.832;2022-09-23T01:05:56;3.33;;;1.90;;
8100;SDS011;4093;53.470;9.832;2022-09-23T01:08:23;3.37;;;2.10;;
8100;SDS011;4093;53.470;9.832;2022-09-23T01:10:54;2.10;;;1.90;;
8100;SDS011;4093;53.470;9.832;2022-09-23T01:13:30;2.73;;;2.13;;
8100;SDS011;4093;53.470;9.832;2022-09-23T01:16:02;2.13;;;2.00;;
8100;SDS011;4093;53.470;9.832;2022-09-23T01:18:37;2.40;;;2.20;;
8100;SDS011;4093;53.470;9.832;2022-09-23T01:21:12;3.60;;;2.40;;
8100;SDS011;4093;53.470;9.832;2022-09-23T01:26:48;3.70;;;2.03;;
8100;SDS011;4093;53.470;9.832;2022-09-23T01:29:27;2.00;;;1.80;;
8100;SDS011;4093;53.470;9.832;2022-09-23T01:32:16;1.90;;;1.80;;
8100;SDS011;4093;53.470;9.832;2022-09-23T01:34:53;2.60;;;1.93;;
8100;SDS011;4093;53.470;9.832;2022-09-23T01:37:28;2.00;;;1.90;;
8100;SDS011;4093;53.470;9.832;2022-09-23T01:40:02;2.10;;;1.80;;
8100;SDS011;4093;53.470;9.832;2022-09-23T01:42:36;2.40;;;1.80;;
8100;SDS011;4093;53.470;9.832;2022-09-23T01:45:08;2.27;;;2.07;;
8100;SDS011;4093;53.470;9.832;2022-09-23T01:47:41;2.77;;;2.07;;
8100;SDS011;4093;53.470;9.832;2022-09-23T01:50:13;2.07;;;1.93;;
8100;SDS011;4093;53.470;9.832;2022-09-23T01:53:03;4.43;;;2.10;;
8100;SDS011;4093;53.470;9.832;2022-09-23T01:55:33;2.30;;;1.90;;
8100;SDS011;4093;53.470;9.832;2022-09-23T01:58:05;1.80;;;1.70;;
8100;SDS011;4093;53.470;9.832;2022-09-23T02:00:38;3.93;;;2.13;;
8100;SDS011;4093;53.470;9.832;2022-09-23T02:03:11;2.83;;;1.90;;
8100;SDS011;4093;53.470;9.832;2022-09-23T02:05:42;2.13;;;1.93;;
8100;SDS011;4093;53.470;9.832;2022-09-23T02:08:13;3.13;;;2.10;;
8100;SDS011;4093;53.470;9.832;2022-09-23T02:10:43;4.53;;;2.10;;
8100;SDS011;4093;53.470;9.832;2022-09-23T02:13:15;1.73;;;1.63;;
8100;SDS011;4093;53.470;9.832;2022-09-23T02:15:46;2.53;;;2.27;;
8100;SDS011;4093;53.470;9.832;2022-09-23T02:18:18;3.90;;;2.00;;
8100;SDS011;4093;53.470;9.832;2022-09-23T02:20:47;2.63;;;2.00;;
8100;SDS011;4093;53.470;9.832;2022-09-23T02:23:18;1.60;;;1.50;;
8100;SDS011;4093;53.470;9.832;2022-09-23T02:25:49;4.10;;;2.30;;
8100;SDS011;4093;53.470;9.832;2022-09-23T02:28:23;2.47;;;2.17;;
8100;SDS011;4093;53.470;9.832;2022-09-23T02:30:58;2.53;;;2.10;;
8100;SDS011;4093;53.470;9.832;2022-09-23T02:33:35;2.73;;;2.17;;
8100;SDS011;4093;53.470;9.832;2022-09-23T02:36:07;2.07;;;1.87;;
8100;SDS011;4093;53.470;9.832;2022-09-23T02:38:41;3.60;;;2.00;;
8100;SDS011;4093;53.470;9.832;2022-09-23T02:41:12;1.87;;;1.70;;
8100;SDS011;4093;53.470;9.832;2022-09-23T02:43:45;2.47;;;1.90;;
8100;SDS011;4093;53.470;9.832;2022-09-23T02:46:16;2.20;;;1.83;;
8100;SDS011;4093;53.470;9.832;2022-09-23T02:48:46;2.33;;;1.90;;
8100;SDS011;4093;53.470;9.832;2022-09-23T02:51:18;4.23;;;1.80;;
8100;SDS011;4093;53.470;9.832;2022-09-23T02:53:44;3.00;;;1.90;;
8100;SDS011;4093;53.470;9.832;2022-09-23T02:56:13;1.70;;;1.60;;
8100;SDS011;4093;53.470;9.832;2022-09-23T02:58:41;1.90;;;1.80;;
8100;SDS011;4093;53.470;9.832;2022-09-23T03:01:10;3.27;;;1.87;;
8100;SDS011;4093;53.470;9.832;2022-09-23T03:03:48;2.20;;;2.00;;
8100;SDS011;4093;53.470;9.832;2022-09-23T03:06:31;2.10;;;1.90;;
8100;SDS011;4093;53.470;9.832;2022-09-23T03:09:05;4.17;;;2.00;;
8100;SDS011;4093;53.470;9.832;2022-09-23T03:11:38;2.67;;;2.27;;
8100;SDS011;4093;53.470;9.832;2022-09-23T03:14:11;2.00;;;1.90;;
8100;SDS011;4093;53.470;9.832;2022-09-23T03:16:44;7.33;;;2.33;;
8100;SDS011;4093;53.470;9.832;2022-09-23T03:19:21;2.87;;;2.07;;
8100;SDS011;4093;53.470;9.832;2022-09-23T03:21:54;2.37;;;2.17;;
8100;SDS011;4093;53.470;9.832;2022-09-23T03:24:27;3.17;;;2.30;;
8100;SDS011;4093;53.470;9.832;2022-09-23T03:26:56;2.90;;;1.90;;
8100;SDS011;4093;53.470;9.832;2022-09-23T03:29:25;2.47;;;2.20;;
8100;SDS011;4093;53.470;9.832;2022-09-23T03:31:53;2.37;;;2.17;;
8100;SDS011;4093;53.470;9.832;2022-09-23T03:34:23;3.33;;;2.43;;
8100;SDS011;4093;53.470;9.832;2022-09-23T03:36:54;4.30;;;2.57;;
8100;SDS011;4093;53.470;9.832;2022-09-23T03:39:27;2.77;;;2.40;;
8100;SDS011;4093;53.470;9.832;2022-09-23T03:42:00;2.70;;;2.50;;
8100;SDS011;4093;53.470;9.832;2022-09-23T03:44:32;3.10;;;2.50;;
8100;SDS011;4093;53.470;9.832;2022-09-23T03:47:02;3.07;;;2.33;;
8100;SDS011;4093;53.470;9.832;2022-09-23T03:49:31;2.93;;;2.57;;
8100;SDS011;4093;53.470;9.832;2022-09-23T03:52:01;2.93;;;2.33;;
8100;SDS011;4093;53.470;9.832;2022-09-23T03:54:28;2.53;;;2.30;;
8100;SDS011;4093;53.470;9.832;2022-09-23T03:56:55;2.43;;;2.00;;
8100;SDS011;4093;53.470;9.832;2022-09-23T03:59:22;3.03;;;2.73;;
8100;SDS011;4093;53.470;9.832;2022-09-23T04:01:49;2.60;;;2.40;;
8100;SDS011;4093;53.470;9.832;2022-09-23T04:04:15;2.40;;;2.20;;
8100;SDS011;4093;53.470;9.832;2022-09-23T04:06:43;2.97;;;2.47;;
8100;SDS011;4093;53.470;9.832;2022-09-23T04:09:10;3.43;;;2.73;;
8100;SDS011;4093;53.470;9.832;2022-09-23T04:11:37;2.67;;;2.47;;
8100;SDS011;4093;53.470;9.832;2022-09-23T04:14:03;2.97;;;2.33;;
8100;SDS011;4093;53.470;9.832;2022-09-23T04:16:30;2.50;;;2.30;;
8100;SDS011;4093;53.470;9.832;2022-09-23T04:18:57;3.47;;;2.53;;
8100;SDS011;4093;53.470;9.832;2022-09-23T04:21:23;4.17;;;2.47;;
8100;SDS011;4093;53.470;9.832;2022-09-23T04:23:52;2.57;;;2.23;;
8100;SDS011;4093;53.470;9.832;2022-09-23T04:26:18;5.40;;;2.60;;
8100;SDS011;4093;53.470;9.832;2022-09-23T04:28:45;3.73;;;3.07;;
8100;SDS011;4093;53.470;9.832;2022-09-23T04:31:11;3.17;;;2.60;;
8100;SDS011;4093;53.470;9.832;2022-09-23T04:33:38;4.37;;;2.37;;
8100;SDS011;4093;53.470;9.832;2022-09-23T04:36:04;3.37;;;2.53;;
8100;SDS011;4093;53.470;9.832;2022-09-23T04:38:31;3.47;;;2.50;;
8100;SDS011;4093;53.470;9.832;2022-09-23T04:40:59;2.53;;;2.33;;
8100;SDS011;4093;53.470;9.832;2022-09-23T04:43:26;3.13;;;2.50;;
8100;SDS011;4093;53.470;9.832;2022-09-23T04:45:56;3.57;;;3.00;;
8100;SDS011;4093;53.470;9.832;2022-09-23T04:48:24;2.90;;;2.50;;
8100;SDS011;4093;53.470;9.832;2022-09-23T04:50:51;3.03;;;2.40;;
8100;SDS011;4093;53.470;9.832;2022-09-23T04:53:17;3.87;;;2.50;;
8100;SDS011;4093;53.470;9.832;2022-09-23T04:55:45;3.93;;;2.97;;
8100;SDS011;4093;53.470;9.832;2022-09-23T04:58:13;4.70;;;2.90;;
8100;SDS011;4093;53.470;9.832;2022-09-23T05:00:39;4.50;;;2.63;;
8100;SDS011;4093;53.470;9.832;2022-09-23T05:03:06;2.93;;;2.67;;
8100;SDS011;4093;53.470;9.832;2022-09-23T05:05:32;3.73;;;2.67;;
8100;SDS011;4093;53.470;9.832;2022-09-23T05:07:59;4.23;;;3.00;;
8100;SDS011;4093;53.470;9.832;2022-09-23T05:10:25;2.90;;;2.47;;
8100;SDS011;4093;53.470;9.832;2022-09-23T05:12:52;3.00;;;2.40;;
8100;SDS011;4093;53.470;9.832;2022-09-23T05:15:20;3.33;;;2.67;;
8100;SDS011;4093;53.470;9.832;2022-09-23T05:17:46;3.43;;;2.40;;
8100;SDS011;4093;53.470;9.832;2022-09-23T05:20:13;5.37;;;2.90;;
8100;SDS011;4093;53.470;9.832;2022-09-23T05:22:39;6.93;;;2.80;;
8100;SDS011;4093;53.470;9.832;2022-09-23T05:25:06;5.50;;;3.20;;
8100;SDS011;4093;53.470;9.832;2022-09-23T05:27:33;3.53;;;2.80;;
8100;SDS011;4093;53.470;9.832;2022-09-23T05:29:59;5.93;;;2.90;;
8100;SDS011;4093;53.470;9.832;2022-09-23T05:32:27;6.57;;;2.87;;
8100;SDS011;4093;53.470;9.832;2022-09-23T05:34:54;3.67;;;2.90;;
8100;SDS011;4093;53.470;9.832;2022-09-23T05:37:20;4.53;;;3.20;;
8100;SDS011;4093;53.470;9.832;2022-09-23T05:39:47;3.50;;;2.90;;
8100;SDS011;4093;53.470;9.832;2022-09-23T05:42:14;4.10;;;2.70;;
8100;SDS011;4093;53.470;9.832;2022-09-23T05:44:41;9.67;;;3.30;;
8100;SDS011;4093;53.470;9.832;2022-09-23T05:47:08;3.77;;;2.90;;
8100;SDS011;4093;53.470;9.832;2022-09-23T05:49:36;4.07;;;2.50;;
8100;SDS011;4093;53.470;9.832;2022-09-23T05:52:02;4.70;;;2.93;;
8100;SDS011;4093;53.470;9.832;2022-09-23T05:54:28;3.57;;;3.10;;
8100;SDS011;4093;53.470;9.832;2022-09-23T05:56:55;4.90;;;2.93;;
8100;SDS011;4093;53.470;9.832;2022-09-23T05:59:22;5.03;;;2.90;;
8100;SDS011;4093;53.470;9.832;2022-09-23T06:01:48;4.20;;;2.97;;
8100;SDS011;4093;53.470;9.832;2022-09-23T06:04:15;3.57;;;2.73;;
8100;SDS011;4093;53.470;9.832;2022-09-23T06:06:43;6.87;;;3.00;;
8100;SDS011;4093;53.470;9.832;2022-09-23T06:09:10;4.67;;;3.40;;
8100;SDS011;4093;53.470;9.832;2022-09-23T06:11:38;4.97;;;2.90;;
8100;SDS011;4093;53.470;9.832;2022-09-23T06:14:05;6.13;;;3.60;;
8100;SDS011;4093;53.470;9.832;2022-09-23T06:16:34;6.13;;;3.60;;
8100;SDS011;4093;53.470;9.832;2022-09-23T06:19:00;6.70;;;5.00;;
8100;SDS011;4093;53.470;9.832;2022-09-23T06:21:29;5.53;;;3.47;;
8100;SDS011;4093;53.470;9.832;2022-09-23T06:23:58;4.10;;;3.70;;
8100;SDS011;4093;53.470;9.832;2022-09-23T06:26:24;6.37;;;4.53;;
8100;SDS011;4093;53.470;9.832;2022-09-23T06:28:53;12.37;;;6.10;;
8100;SDS011;4093;53.470;9.832;2022-09-23T06:31:19;8.13;;;4.60;;
8100;SDS011;4093;53.470;9.832;2022-09-23T06:33:46;9.53;;;4.43;;
8100;SDS011;4093;53.470;9.832;2022-09-23T06:36:15;5.57;;;4.03;;
8100;SDS011;4093;53.470;9.832;2022-09-23T06:38:42;5.10;;;3.67;;
8100;SDS011;4093;53.470;9.832;2022-09-23T06:41:11;6.67;;;4.00;;
8100;SDS011;4093;53.470;9.832;2022-09-23T06:43:38;4.40;;;3.60;;
8100;SDS011;4093;53.470;9.832;2022-09-23T06:46:05;11.17;;;4.33;;
8100;SDS011;4093;53.470;9.832;2022-09-23T06:48:32;7.53;;;3.90;;
8100;SDS011;4093;53.470;9.832;2022-09-23T06:51:00;6.97;;;4.33;;
8100;SDS011;4093;53.470;9.832;2022-09-23T06:53:29;8.83;;;3.70;;
8100;SDS011;4093;53.470;9.832;2022-09-23T06:55:57;11.73;;;4.87;;
8100;SDS011;4093;53.470;9.832;2022-09-23T06:58:26;10.30;;;4.73;;
8100;SDS011;4093;53.470;9.832;2022-09-23T07:00:53;8.43;;;5.40;;
8100;SDS011;4093;53.470;9.832;2022-09-23T07:03:25;15.87;;;6.67;;
8100;SDS011;4093;53.470;9.832;2022-09-23T07:05:53;13.23;;;7.80;;
8100;SDS011;4093;53.470;9.832;2022-09-23T07:08:19;10.23;;;6.30;;
8100;SDS011;4093;53.470;9.832;2022-09-23T07:10:49;9.67;;;6.93;;
8100;SDS011;4093;53.470;9.832;2022-09-23T07:13:16;14.13;;;6.17;;
8100;SDS011;4093;53.470;9.832;2022-09-23T07:15:48;10.27;;;4.63;;
8100;SDS011;4093;53.470;9.832;2022-09-23T07:18:15;6.20;;;4.37;;
8100;SDS011;4093;53.470;9.832;2022-09-23T07:20:42;7.43;;;4.13;;
8100;SDS011;4093;53.470;9.832;2022-09-23T07:23:09;9.60;;;3.97;;
8100;SDS011;4093;53.470;9.832;2022-09-23T07:25:36;6.07;;;4.07;;
8100;SDS011;4093;53.470;9.832;2022-09-23T07:28:02;5.40;;;3.17;;
8100;SDS011;4093;53.470;9.832;2022-09-23T07:30:29;9.33;;;3.90;;
8100;SDS011;4093;53.470;9.832;2022-09-23T07:32:57;6.00;;;3.40;;
8100;SDS011;4093;53.470;9.832;2022-09-23T07:35:23;6.80;;;3.73;;
8100;SDS011;4093;53.470;9.832;2022-09-23T07:37:52;7.40;;;3.40;;
8100;SDS011;4093;53.470;9.832;2022-09-23T07:40:18;6.77;;;3.00;;
8100;SDS011;4093;53.470;9.832;2022-09-23T07:42:45;3.37;;;3.07;;
8100;SDS011;4093;53.470;9.832;2022-09-23T07:45:12;3.90;;;2.67;;
8100;SDS011;4093;53.470;9.832;2022-09-23T07:47:39;4.57;;;2.40;;
8100;SDS011;4093;53.470;9.832;2022-09-23T07:50:07;3.60;;;2.33;;
8100;SDS011;4093;53.470;9.832;2022-09-23T07:52:35;2.00;;;1.80;;
8100;SDS011;4093;53.470;9.832;2022-09-23T07:55:02;6.72;;;2.25;;
8100;SDS011;4093;53.470;9.832;2022-09-23T07:57:30;2.55;;;2.03;;
8100;SDS011;4093;53.470;9.832;2022-09-23T07:59:58;4.18;;;2.17;;
8100;SDS011;4093;53.470;9.832;2022-09-23T08:02:25;2.05;;;1.60;;
8100;SDS011;4093;53.470;9.832;2022-09-23T08:04:51;2.83;;;2.00;;
8100;SDS011;4093;53.470;9.832;2022-09-23T08:07:20;4.30;;;2.08;;
8100;SDS011;4093;53.470;9.832;2022-09-23T08:09:46;1.73;;;1.63;;
8100;SDS011;4093;53.470;9.832;2022-09-23T08:12:14;2.63;;;1.85;;
8100;SDS011;4093;53.470;9.832;2022-09-23T08:14:42;2.58;;;1.70;;
8100;SDS011;4093;53.470;9.832;2022-09-23T08:17:10;1.73;;;1.52;;
8100;SDS011;4093;53.470;9.832;2022-09-23T08:19:36;2.13;;;1.80;;
8100;SDS011;4093;53.470;9.832;2022-09-23T08:22:03;2.15;;;1.40;;
8100;SDS011;4093;53.470;9.832;2022-09-23T08:24:31;1.80;;;1.70;;
8100;SDS011;4093;53.470;9.832;2022-09-23T08:26:57;3.35;;;1.85;;
8100;SDS011;4093;53.470;9.832;2022-09-23T08:29:24;2.40;;;1.80;;
8100;SDS011;4093;53.470;9.832;2022-09-23T08:31:51;3.08;;;1.58;;
8100;SDS011;4093;53.470;9.832;2022-09-23T08:34:19;2.95;;;1.92;;
8100;SDS011;4093;53.470;9.832;2022-09-23T08:36:46;2.53;;;1.73;;
8100;SDS011;4093;53.470;9.832;2022-09-23T08:39:13;5.18;;;1.80;;
8100;SDS011;4093;53.470;9.832;2022-09-23T08:41:44;3.25;;;2.03;;
8100;SDS011;4093;53.470;9.832;2022-09-23T08:44:23;2.92;;;1.65;;
8100;SDS011;4093;53.470;9.832;2022-09-23T08:46:54;2.72;;;1.70;;
8100;SDS011;4093;53.470;9.832;2022-09-23T08:49:30;2.63;;;2.08;;
8100;SDS011;4093;53.470;9.832;2022-09-23T08:52:05;2.00;;;1.73;;
8100;SDS011;4093;53.470;9.832;2022-09-23T08:54:36;4.63;;;1.83;;
8100;SDS011;4093;53.470;9.832;2022-09-23T08:57:04;3.80;;;1.70;;
8100;SDS011;4093;53.470;9.832;2022-09-23T08:59:40;1.92;;;1.80;;
8100;SDS011;4093;53.470;9.832;2022-09-23T09:02:11;4.25;;;2.03;;
8100;SDS011;4093;53.470;9.832;2022-09-23T09:04:41;3.13;;;2.00;;
8100;SDS011;4093;53.470;9.832;2022-09-23T09:07:10;3.10;;;1.90;;
8100;SDS011;4093;53.470;9.832;2022-09-23T09:09:42;3.55;;;1.92;;
8100;SDS011;4093;53.470;9.832;2022-09-23T09:12:16;5.20;;;2.00;;
8100;SDS011;4093;53.470;9.832;2022-09-23T09:14:47;1.92;;;1.83;;
8100;SDS011;4093;53.470;9.832;2022-09-23T09:17:22;3.40;;;2.38;;
8100;SDS011;4093;53.470;9.832;2022-09-23T09:19:55;2.83;;;2.10;;
8100;SDS011;4093;53.470;9.832;2022-09-23T09:22:33;2.13;;;1.70;;
8100;SDS011;4093;53.470;9.832;2022-09-23T09:25:11;3.55;;;2.13;;
8100;SDS011;4093;53.470;9.832;2022-09-23T09:27:47;2.83;;;2.05;;
8100;SDS011;4093;53.470;9.832;2022-09-23T09:30:15;1.70;;;1.60;;
8100;SDS011;4093;53.470;9.832;2022-09-23T09:32:43;2.42;;;2.15;;
8100;SDS011;4093;53.470;9.832;2022-09-23T09:35:18;3.87;;;1.97;;
8100;SDS011;4093;53.470;9.832;2022-09-23T09:37:48;2.17;;;1.80;;
8100;SDS011;4093;53.470;9.832;2022-09-23T09:40:15;3.80;;;1.90;;
8100;SDS011;4093;53.470;9.832;2022-09-23T09:42:45;3.03;;;1.90;;
8100;SDS011;4093;53.470;9.832;2022-09-23T09:45:16;1.95;;;1.60;;
8100;SDS011;4093;53.470;9.832;2022-09-23T09:47:55;2.30;;;1.70;;
8100;SDS011;4093;53.470;9.832;2022-09-23T09:50:41;3.57;;;2.20;;
8100;SDS011;4093;53.470;9.832;2022-09-23T09:53:13;2.88;;;2.00;;
8100;SDS011;4093;53.470;9.832;2022-09-23T09:55:55;2.70;;;2.03;;
8100;SDS011;4093;53.470;9.832;2022-09-23T09:58:27;2.80;;;1.70;;
8100;SDS011;4093;53.470;9.832;2022-09-23T10:00:58;3.63;;;2.10;;
8100;SDS011;4093;53.470;9.832;2022-09-23T10:03:33;2.38;;;1.80;;
8100;SDS011;4093;53.470;9.832;2022-09-23T10:06:18;2.35;;;2.00;;
8100;SDS011;4093;53.470;9.832;2022-09-23T10:11:37;2.90;;;1.60;;
8100;SDS011;4093;53.470;9.832;2022-09-23T10:14:09;4.35;;;2.10;;
8100;SDS011;4093;53.470;9.832;2022-09-23T10:16:38;3.45;;;2.13;;
8100;SDS011;4093;53.470;9.832;2022-09-23T10:19:11;2.85;;;1.67;;
8100;SDS011;4093;53.470;9.832;2022-09-23T10:21:43;3.22;;;1.63;;
8100;SDS011;4093;53.470;9.832;2022-09-23T10:24:19;3.22;;;1.95;;
8100;SDS011;4093;53.470;9.832;2022-09-23T10:26:50;3.03;;;1.90;;
8100;SDS011;4093;53.470;9.832;2022-09-23T10:29:27;1.40;;;1.30;;
8100;SDS011;4093;53.470;9.832;2022-09-23T10:32:18;2.22;;;1.88;;
8100;SDS011;4093;53.470;9.832;2022-09-23T10:34:50;3.63;;;1.63;;
8100;SDS011;4093;53.470;9.832;2022-09-23T10:37:26;2.50;;;1.90;;
8100;SDS011;4093;53.470;9.832;2022-09-23T10:39:57;3.70;;;1.75;;
8100;SDS011;4093;53.470;9.832;2022-09-23T10:42:46;2.42;;;2.00;;
8100;SDS011;4093;53.470;9.832;2022-09-23T10:45:38;1.85;;;1.60;;
8100;SDS011;4093;53.470;9.832;2022-09-23T10:48:25;2.63;;;1.58;;
8100;SDS011;4093;53.470;9.832;2022-09-23T10:50:59;3.35;;;2.20;;
8100;SDS011;4093;53.470;9.832;2022-09-23T10:53:35;2.15;;;1.95;;
8100;SDS011;4093;53.470;9.832;2022-09-23T10:56:15;3.88;;;1.90;;
8100;SDS011;4093;53.470;9.832;2022-09-23T10:58:57;2.60;;;1.65;;
8100;SDS011;4093;53.470;9.832;2022-09-23T11:01:37;3.60;;;2.00;;
8100;SDS011;4093;53.470;9.832;2022-09-23T11:04:13;1.73;;;1.63;;
8100;SDS011;4093;53.470;9.832;2022-09-23T11:06:51;2.45;;;1.98;;
8100;SDS011;4093;53.470;9.832;2022-09-23T11:09:32;3.70;;;1.83;;
8100;SDS011;4093;53.470;9.832;2022-09-23T11:12:09;1.98;;;1.60;;
8100;SDS011;4093;53.470;9.832;2022-09-23T11:14:49;3.55;;;1.75;;
8100;SDS011;4093;53.470;9.832;2022-09-23T11:20:32;1.92;;;1.83;;
8100;SDS011;4093;53.470;9.832;2022-09-23T11:23:23;2.03;;;1.60;;
8100;SDS011;4093;53.470;9.832;2022-09-23T11:26:03;1.60;;;1.50;;
8100;SDS011;4093;53.470;9.832;2022-09-23T11:28:48;2.63;;;1.63;;
8100;SDS011;4093;53.470;9.832;2022-09-23T11:31:31;3.03;;;1.45;;
8100;SDS011;4093;53.470;9.832;2022-09-23T11:34:13;3.08;;;1.70;;
8100;SDS011;4093;53.470;9.832;2022-09-23T11:36:55;1.95;;;1.70;;
8100;SDS011;4093;53.470;9.832;2022-09-23T11:39:27;2.28;;;1.42;;
8100;SDS011;4093;53.470;9.832;2022-09-23T11:41:58;3.95;;;1.67;;
8100;SDS011;4093;53.470;9.832;2022-09-23T11:44:27;2.85;;;1.80;;
8100;SDS011;4093;53.470;9.832;2022-09-23T11:46:58;2.72;;;1.83;;
8100;SDS011;4093;53.470;9.832;2022-09-23T11:49:34;2.08;;;1.70;;
8100;SDS011;4093;53.470;9.832;2022-09-23T11:52:06;1.67;;;1.58;;
8100;SDS011;4093;53.470;9.832;2022-09-23T11:54:37;1.60;;;1.50;;
8100;SDS011;4093;53.470;9.832;2022-09-23T11:57:10;3.60;;;1.80;;
8100;SDS011;4093;53.470;9.832;2022-09-23T11:59:42;2.65;;;1.80;;
8100;SDS011;4093;53.470;9.832;2022-09-23T12:02:17;2.25;;;1.73;;
8100;SDS011;4093;53.470;9.832;2022-09-23T12:04:54;1.48;;;1.38;;
8100;SDS011;4093;53.470;9.832;2022-09-23T12:07:26;2.63;;;1.85;;
8100;SDS011;4093;53.470;9.832;2022-09-23T12:09:56;1.45;;;1.35;;
8100;SDS011;4093;53.470;9.832;2022-09-23T12:12:28;1.60;;;1.50;;
8100;SDS011;4093;53.470;9.832;2022-09-23T12:15:01;1.70;;;1.60;;
8100;SDS011;4093;53.470;9.832;2022-09-23T12:17:50;3.13;;;1.40;;
8100;SDS011;4093;53.470;9.832;2022-09-23T12:20:41;1.92;;;1.80;;
8100;SDS011;4093;53.470;9.832;2022-09-23T12:23:32;2.00;;;1.80;;
8100;SDS011;4093;53.470;9.832;2022-09-23T12:26:13;1.73;;;1.45;;
8100;SDS011;4093;53.470;9.832;2022-09-23T12:28:43;3.35;;;1.88;;
8100;SDS011;4093;53.470;9.832;2022-09-23T12:31:14;2.42;;;2.00;;
8100;SDS011;4093;53.470;9.832;2022-09-23T12:33:47;2.28;;;1.70;;
8100;SDS011;4093;53.470;9.832;2022-09-23T12:36:16;2.22;;;2.03;;
8100;SDS011;4093;53.470;9.832;2022-09-23T12:38:52;2.95;;;1.75;;
8100;SDS011;4093;53.470;9.832;2022-09-23T12:41:25;2.45;;;1.77;;
8100;SDS011;4093;53.470;9.832;2022-09-23T12:43:58;3.13;;;1.77;;
8100;SDS011;4093;53.470;9.832;2022-09-23T12:46:38;1.75;;;1.65;;
8100;SDS011;4093;53.470;9.832;2022-09-23T12:49:13;2.85;;;1.65;;
8100;SDS011;4093;53.470;9.832;2022-09-23T12:54:50;1.70;;;1.60;;
8100;SDS011;4093;53.470;9.832;2022-09-23T13:00:21;1.33;;;1.30;;
8100;SDS011;4093;53.470;9.832;2022-09-23T13:02:51;2.30;;;1.90;;
8100;SDS011;4093;53.470;9.832;2022-09-23T13:05:41;3.17;;;1.92;;
8100;SDS011;4093;53.470;9.832;2022-09-23T13:08:29;2.00;;;1.90;;
8100;SDS011;4093;53.470;9.832;2022-09-23T13:10:59;2.40;;;1.33;;
8100;SDS011;4093;53.470;9.832;2022-09-23T13:13:28;2.67;;;2.00;;
8100;SDS011;4093;53.470;9.832;2022-09-23T13:16:09;2.08;;;1.90;;
8100;SDS011;4093;53.470;9.832;2022-09-23T13:24:40;1.77;;;1.67;;
8100;SDS011;4093;53.470;9.832;2022-09-23T13:27:17;1.73;;;1.63;;
8100;SDS011;4093;53.470;9.832;2022-09-23T13:29:49;2.22;;;1.70;;
8100;SDS011;4093;53.470;9.832;2022-09-23T13:32:19;1.42;;;1.42;;
8100;SDS011;4093;53.470;9.832;2022-09-23T13:34:52;1.77;;;1.67;;
8100;SDS011;4093;53.470;9.832;2022-09-23T13:37:22;1.92;;;1.83;;
8100;SDS011;4093;53.470;9.832;2022-09-23T13:39:52;2.17;;;1.95;;
8100;SDS011;4093;53.470;9.832;2022-09-23T13:42:32;2.75;;;2.05;;
8100;SDS011;4093;53.470;9.832;2022-09-23T13:45:01;2.70;;;1.90;;
8100;SDS011;4093;53.470;9.832;2022-09-23T13:47:28;2.80;;;2.00;;
8100;SDS011;4093;53.470;9.832;2022-09-23T13:49:56;2.15;;;1.73;;
8100;SDS011;4093;53.470;9.832;2022-09-23T13:52:23;2.83;;;2.08;;
8100;SDS011;4093;53.470;9.832;2022-09-23T13:54:55;3.28;;;1.67;;
8100;SDS011;4093;53.470;9.832;2022-09-23T13:57:25;3.00;;;1.80;;
8100;SDS011;4093;53.470;9.832;2022-09-23T13:59:53;2.00;;;1.60;;
8100;SDS011;4093;53.470;9.832;2022-09-23T14:02:24;2.17;;;1.92;;
8100;SDS011;4093;53.470;9.832;2022-09-23T14:04:54;3.53;;;1.67;;
8100;SDS011;4093;53.470;9.832;2022-09-23T14:07:21;2.05;;;1.58;;
8100;SDS011;4093;53.470;9.832;2022-09-23T14:09:48;2.45;;;1.40;;
8100;SDS011;4093;53.470;9.832;2022-09-23T14:12:18;3.08;;;2.30;;
8100;SDS011;4093;53.470;9.832;2022-09-23T14:14:46;2.17;;;1.60;;
8100;SDS011;4093;53.470;9.832;2022-09-23T14:17:15;2.35;;;1.65;;
8100;SDS011;4093;53.470;9.832;2022-09-23T14:19:44;3.53;;;2.00;;
8100;SDS011;4093;53.470;9.832;2022-09-23T14:22:19;3.30;;;2.05;;
8100;SDS011;4093;53.470;9.832;2022-09-23T14:24:48;2.22;;;1.88;;
8100;SDS011;4093;53.470;9.832;2022-09-23T14:27:16;2.05;;;1.63;;
8100;SDS011;4093;53.470;9.832;2022-09-23T14:29:49;2.60;;;1.98;;
8100;SDS011;4093;53.470;9.832;2022-09-23T14:32:16;2.53;;;1.60;;
8100;SDS011;4093;53.470;9.832;2022-09-23T14:34:48;1.88;;;1.60;;
8100;SDS011;4093;53.470;9.832;2022-09-23T14:37:21;2.38;;;1.98;;
8100;SDS011;4093;53.470;9.832;2022-09-23T14:40:10;1.45;;;1.35;;
8100;SDS011;4093;53.470;9.832;2022-09-23T14:42:41;2.08;;;1.60;;
8100;SDS011;4093;53.470;9.832;2022-09-23T14:45:12;7.40;;;1.80;;
8100;SDS011;4093;53.470;9.832;2022-09-23T14:47:42;1.85;;;1.73;;
8100;SDS011;4093;53.470;9.832;2022-09-23T14:50:13;1.63;;;1.48;;
8100;SDS011;4093;53.470;9.832;2022-09-23T14:52:59;3.22;;;1.92;;
8100;SDS011;4093;53.470;9.832;2022-09-23T14:55:26;1.77;;;1.67;;
8100;SDS011;4093;53.470;9.832;2022-09-23T14:58:00;2.30;;;2.10;;
8100;SDS011;4093;53.470;9.832;2022-09-23T15:00:29;3.70;;;1.95;;
8100;SDS011;4093;53.470;9.832;2022-09-23T15:02:57;3.08;;;1.92;;
8100;SDS011;4093;53.470;9.832;2022-09-23T15:05:29;2.00;;;1.80;;
8100;SDS011;4093;53.470;9.832;2022-09-23T15:08:04;4.32;;;2.00;;
8100;SDS011;4093;53.470;9.832;2022-09-23T15:10:32;1.90;;;1.80;;
8100;SDS011;4093;53.470;9.832;2022-09-23T15:13:03;2.47;;;2.00;;
8100;SDS011;4093;53.470;9.832;2022-09-23T15:15:32;2.55;;;1.75;;
8100;SDS011;4093;53.470;9.832;2022-09-23T15:18:03;1.90;;;1.77;;
8100;SDS011;4093;53.470;9.832;2022-09-23T15:20:32;2.53;;;1.98;;
8100;SDS011;4093;53.470;9.832;2022-09-23T15:23:00;2.03;;;1.83;;
8100;SDS011;4093;53.470;9.832;2022-09-23T15:25:30;2.33;;;1.90;;
8100;SDS011;4093;53.470;9.832;2022-09-23T15:27:59;2.72;;;2.00;;
8100;SDS011;4093;53.470;9.832;2022-09-23T15:30:29;2.03;;;1.88;;
8100;SDS011;4093;53.470;9.832;2022-09-23T15:32:56;6.15;;;2.25;;
8100;SDS011;4093;53.470;9.832;2022-09-23T15:35:24;3.38;;;2.05;;
8100;SDS011;4093;53.470;9.832;2022-09-23T15:37:53;2.75;;;2.10;;
8100;SDS011;4093;53.470;9.832;2022-09-23T15:40:22;3.88;;;2.28;;
8100;SDS011;4093;53.470;9.832;2022-09-23T15:42:49;2.38;;;2.15;;
8100;SDS011;4093;53.470;9.832;2022-09-23T15:45:20;2.05;;;1.95;;
8100;SDS011;4093;53.470;9.832;2022-09-23T15:47:54;2.65;;;1.90;;
8100;SDS011;4093;53.470;9.832;2022-09-23T15:50:25;2.33;;;2.13;;
8100;SDS011;4093;53.470;9.832;2022-09-23T15:52:52;4.38;;;1.90;;
8100;SDS011;4093;53.470;9.832;2022-09-23T15:55:19;3.72;;;2.15;;
8100;SDS011;4093;53.470;9.832;2022-09-23T15:57:47;2.47;;;1.95;;
8100;SDS011;4093;53.470;9.832;2022-09-23T16:00:14;3.33;;;2.10;;